createdAt,value
2022-10-01T00:02:56.313Z,8.05
2022-10-01T00:07:58.139Z,8.50
2022-10-01T00:12:59.922Z,8.48
2022-10-01T00:18:01.732Z,10.98
2022-10-01T00:23:03.511Z,13.02
2022-10-01T00:28:05.379Z,11.85
2022-10-01T00:33:07.242Z,10.20
2022-10-01T00:38:09.029Z,11.63
2022-10-01T00:43:20.503Z,14.25
2022-10-01T00:48:23.249Z,15.18
2022-10-01T00:53:25.555Z,15.82
2022-10-01T00:58:27.862Z,15.25
2022-10-01T01:03:29.749Z,17.83
2022-10-01T01:08:31.546Z,19.52
2022-10-01T01:13:42.343Z,16.42
2022-10-01T01:18:49.990Z,13.90
2022-10-01T01:23:51.768Z,17.88
2022-10-01T01:28:56.768Z,15.40
2022-10-01T01:33:59.477Z,21.15
2022-10-01T01:39:03.635Z,14.00
2022-10-01T01:44:08.057Z,15.82
2022-10-01T01:49:09.924Z,18.83
2022-10-01T01:54:11.970Z,21.13
2022-10-01T01:59:14.120Z,18.77
2022-10-01T02:04:24.304Z,18.25
2022-10-01T02:09:34.932Z,17.65
2022-10-01T02:14:45.105Z,20.17
2022-10-01T02:19:56.955Z,22.73
2022-10-01T02:25:00.902Z,19.30
2022-10-01T02:30:05.343Z,24.27
2022-10-01T02:35:08.480Z,20.25
2022-10-01T02:40:11.788Z,18.67
2022-10-01T02:50:15.449Z,21.10
2022-10-01T02:55:21.979Z,23.17
2022-10-01T03:00:23.855Z,23.15
2022-10-01T03:05:26.063Z,19.63
2022-10-01T03:10:27.965Z,18.27
2022-10-01T03:15:29.760Z,22.05
2022-10-01T03:20:31.551Z,17.92
2022-10-01T03:25:33.342Z,19.00
2022-10-01T03:30:35.147Z,15.65
2022-10-01T03:35:37.017Z,14.30
2022-10-01T03:40:38.794Z,12.63
2022-10-01T03:45:40.595Z,10.85
2022-10-01T03:50:42.431Z,9.35
2022-10-01T03:55:44.235Z,8.90
2022-10-01T04:00:46.683Z,9.25
2022-10-01T04:05:48.722Z,9.63
2022-10-01T04:10:50.716Z,9.07
2022-10-01T04:15:52.669Z,11.27
2022-10-01T04:20:54.479Z,7.30
2022-10-01T04:26:00.371Z,7.70
2022-10-01T04:31:02.203Z,6.95
2022-10-01T04:36:03.989Z,7.32
2022-10-01T04:41:05.853Z,6.13
2022-10-01T04:46:07.636Z,6.65
2022-10-01T04:51:09.475Z,6.15
2022-10-01T04:56:11.251Z,7.15
2022-10-01T05:01:13.076Z,10.18
2022-10-01T05:06:14.929Z,6.03
2022-10-01T05:11:16.727Z,7.65
2022-10-01T05:16:18.568Z,4.90
2022-10-01T05:21:20.622Z,5.28
2022-10-01T05:26:22.423Z,5.55
2022-10-01T05:31:24.252Z,5.90
2022-10-01T05:36:26.123Z,5.55
2022-10-01T05:41:27.898Z,6.90
2022-10-01T05:46:29.699Z,6.68
2022-10-01T05:51:31.753Z,5.13
2022-10-01T05:56:33.799Z,7.40
2022-10-01T06:01:35.850Z,5.80
2022-10-01T06:06:37.913Z,6.22
2022-10-01T06:11:40.052Z,5.88
2022-10-01T06:16:41.859Z,6.50
2022-10-01T06:21:43.679Z,9.07
2022-10-01T06:26:45.455Z,9.32
2022-10-01T06:31:47.299Z,7.78
2022-10-01T06:36:49.165Z,7.00
2022-10-01T06:41:50.956Z,7.43
2022-10-01T06:46:52.730Z,8.02
2022-10-01T06:51:54.515Z,8.32
2022-10-01T06:56:56.291Z,7.82
2022-10-01T07:01:58.105Z,7.32
2022-10-01T07:06:59.933Z,8.60
2022-10-01T07:12:01.799Z,10.52
2022-10-01T07:17:03.591Z,14.10
2022-10-01T07:22:05.465Z,7.53
2022-10-01T07:27:07.668Z,8.15
2022-10-01T07:32:09.608Z,8.88
2022-10-01T07:37:11.419Z,6.97
2022-10-01T07:42:13.208Z,9.38
2022-10-01T07:47:15.062Z,8.48
2022-10-01T07:52:16.889Z,9.63
2022-10-01T07:57:18.692Z,7.63
2022-10-01T08:02:20.539Z,9.57
2022-10-01T08:07:22.358Z,13.52
2022-10-01T08:12:24.172Z,8.10
2022-10-01T08:17:29.358Z,5.38
2022-10-01T08:22:31.449Z,4.28
2022-10-01T08:27:33.364Z,6.35
2022-10-01T08:32:35.163Z,6.57
2022-10-01T08:37:37.110Z,10.00
2022-10-01T08:42:43.782Z,6.20
2022-10-01T08:47:51.827Z,7.60
2022-10-01T08:52:59.512Z,5.25
2022-10-01T08:58:02.851Z,5.90
2022-10-01T09:03:05.845Z,5.35
2022-10-01T09:13:09.343Z,5.53
2022-10-01T09:18:13.976Z,6.65
2022-10-01T09:23:23.399Z,7.65
2022-10-01T21:50:27.546Z,6.25
2022-10-01T21:55:32.319Z,5.68
2022-10-01T22:00:34.176Z,4.47
2022-10-01T22:05:35.966Z,4.15
2022-10-01T22:10:39.437Z,10.52
2022-10-01T22:15:43.470Z,16.33
2022-10-01T22:20:45.996Z,16.17
2022-10-01T22:25:51.170Z,6.83
2022-10-01T22:30:53.799Z,11.30
2022-10-01T22:36:02.289Z,9.85
2022-10-01T22:41:07.615Z,10.95
2022-10-01T22:46:21.639Z,13.35
2022-10-01T22:51:23.424Z,11.85
2022-10-01T22:56:40.796Z,10.93
2022-10-01T23:02:01.325Z,11.63
2022-10-01T23:07:18.511Z,15.88
2022-10-01T23:12:41.168Z,10.40
2022-10-01T23:18:01.385Z,14.60
2022-10-01T23:23:10.060Z,19.30
2022-10-01T23:28:22.374Z,13.45
2022-10-01T23:33:36.201Z,12.52
2022-10-01T23:38:49.943Z,15.80
2022-10-01T23:48:57.971Z,15.70
2022-10-01T23:54:12.809Z,15.65
2022-10-01T23:59:27.637Z,19.60
